Monday, August 29, 2016
21:46 UTC
  |  Log In   |  Register Free
Airport Search:

Mount Sterling-Montgomery County Airport
(KIOB)

Mount Sterling-Montgomery County Airport Diagram
No Airport Diagram Available

FAA data valid effective Jul 21 2016 - Sep 15 2016 (unless otherwise noted).

 
 
 
 
 
 
 
 
 
 
 
 
 
 
Current Aviation Weather for KIOB

Weather Summary


The most recent METAR observation for IOB was updated at: 12:55 UTC
METAR for IOB is not available. Closest METAR is for
METAR

METAR KIOB 292135Z 06005KT 10SM SCT042 31/21 A3016 RMK AO2

METAR KIOB 292115Z 05008KT 10SM SCT040 31/22 A3016 RMK AO2

METAR KIOB 292055Z 04006KT 10SM SCT038 SCT050 31/22 A3016 RMK AO2

METAR KIOB 292035Z 07008KT 10SM SCT038 SCT050 SCT090 31/22 A3017 RMK AO2

METAR KIOB 292015Z 03005KT 10SM SCT035 31/22 A3018 RMK AO2

METAR KIOB 291955Z 06005KT 10SM SCT035 SCT048 SCT060 31/22 A3018 RMK AO2

METAR KIOB 291935Z 10005KT 10SM SCT035 SCT048 SCT060 31/22 A3019 RMK AO2

METAR KIOB 291915Z 08006KT 10SM CLR 31/22 A3020 RMK AO2

METAR KIOB 291855Z 06005KT 10SM SCT033 31/22 A3021 RMK AO2

METAR K8W2 292135Z 00000KT 10SM CLR A3010 RMK AO1

METAR KFGX 292135Z 04008KT 10SM SCT045 31/21 A3016 RMK AO2 T03100205

METAR KI39 METAR not available

TAF for IOB is not available.
TAF

KSYM - TAF KSYM 291726Z 2918/3018 VRB04KT P6SM FEW026 FEW250

KSYM - FM300100 04003KT P6SM SKC =

KLEX - TAF AMD KLEX 291952Z 2920/3018 04007KT P6SM VCTS SCT035CB

KLEX - FM292200 07005KT P6SM SCT250 =

GlobalAir.com is loading additional information.
 Current Weather at IOB
88.0 F° (31.0 C°)

Northeast winds at 5.8 mph
Pressure:
30.18 in
Humidity:
59%
Wind:
Northeast at 5.8 mph
Dew Point:
71.6 F° (22.0 C°)
Visibility:
10.00 mi
IOB NOAA Radar




Find All Airport Services Find A Hotel Find A Rental Car Find A Golf Course Find A Restaurant $100 Hamburger



Airport Weather Forecast for KIOB

Translated METAR for KIOB (2135 UTC)
METAR:
KIOB 292135Z AUTO Mount Sterling-Montgomery Cnty, Mount Sterling, KY (KIOB). Aug 29, 2135Z, Automated. Wind from 060° at 5 knots, 10 statute miles visibility, Scattered Clouds at 4,200 feet, Temperature 31°C, Dewpoint 21°C, Altimeter is 30.16. Remarks: automated station with precipitation discriminator
Conditions at:
KIOB (Mount Sterling-Montgomery County, KY) observed 2135 UTC 29 August 2016
Temperature:
88.0 F° (31.0 C°)
Dewpoint:
not reported - refer to area weather report
Pressure:
30.18 Hg
Winds:
not reported
Visibility:
10.00
Ceiling:
at least 12,000 feet AGL
Clouds:
not reported - refer to area weather report
Remarks:
site is un-manned

Translated TAF for TAF for IOB is not available. Refer to local area forecast.
FBO's on the Field
FBO Company Facility Photos Services Transportation Aviation Fuel Prices: Prices include tax
Catering Weather Repair Courtesy Rental Type 100LL JetA JetA+ MOGAS 8087
 
Kentucky Airmotive Inc

This FBO has not yet been rated
FS:Shell
Last Updated: Aug-04
Login to update fuel prices
SS:
Contact Kentucky Airmotive IncMore FBO Information
 
Add another FBO Facility Photos Catering Weather Repair Courtesy Rental Type 100LL JetA JetA+ MOGAS 8087
Services Transportation Aviation Fuel Prices: Prices include tax


model-print
model-print
model-print
model-print